Time;durP1;ratioP1;P1;durP2;ratioP2;P2;SDS_P1;SDS_P2;PMS_P1;PMS_P2;Temp;Humidity;BMP_temperature;BMP_pressure;BME280_temperature;BME280_humidity;BME280_pressure;Samples;Min_cycle;Max_cycle;Signal;HPM_P1;HPM_P2
2022/11/05 00:10:09;;;;;;;;;10.60;10.00;;;;;12.23;61.59;101294.13;2087961;28;46448;-72
2022/11/05 00:11:11;;;;;;;;;18.60;12.60;;;;;12.21;61.30;101285.28;2087684;28;45791;-71
2022/11/05 00:17:33;;;;;;;;;10.25;10.25;;;;;12.19;61.87;101303.03;2069643;28;46494;-70
2022/11/05 00:18:33;;;;;;;;;11.50;11.50;;;;;12.19;61.65;101300.38;2069282;28;45874;-70
2022/11/05 00:19:34;;;;;;;;;13.25;11.75;;;;;12.18;61.40;101295.97;2071818;28;47332;-69
2022/11/05 00:20:34;;;;;;;;;13.25;12.00;;;;;12.18;61.59;101297.75;2072037;28;46589;-70
2022/11/05 00:25:42;;;;;;;;;6.80;6.80;;;;;12.15;61.90;101297.81;2070130;28;46091;-69
2022/11/05 00:26:42;;;;;;;;;15.00;14.00;;;;;12.18;61.95;101300.41;2076161;28;46565;-71
2022/11/05 00:27:48;;;;;;;;;12.00;12.00;;;;;12.19;61.82;101302.16;2077217;28;45866;-69
2022/11/05 00:28:48;;;;;;;;;12.60;11.60;;;;;12.18;61.86;101292.44;2085569;28;46689;-69
2022/11/05 00:29:49;;;;;;;;;14.50;14.50;;;;;12.17;61.84;101291.56;2073512;28;45681;-69
2022/11/05 00:30:50;;;;;;;;;12.75;11.50;;;;;12.18;61.68;101290.66;2077992;28;45920;-70
2022/11/05 00:31:50;;;;;;;;;12.00;12.00;;;;;12.19;61.82;101291.53;2084109;28;46042;-70
2022/11/05 00:32:51;;;;;;;;;11.50;10.50;;;;;12.20;61.93;101295.97;2086553;28;45851;-70
2022/11/05 00:33:52;;;;;;;;;13.20;13.20;;;;;12.18;61.81;101290.66;2084746;28;46480;-68
2022/11/05 00:34:52;;;;;;;;;13.00;11.00;;;;;12.19;61.84;101300.38;2086796;28;46621;-69
2022/11/05 00:35:52;;;;;;;;;11.75;11.75;;;;;12.19;61.74;101292.41;2084187;28;45278;-70
2022/11/05 00:36:53;;;;;;;;;11.00;10.00;;;;;12.19;61.80;101296.84;2086533;28;46027;-69
2022/11/05 00:37:53;;;;;;;;;15.00;14.00;;;;;12.19;61.82;101288.84;2080834;28;46333;-69
2022/11/05 00:38:53;;;;;;;;;10.50;9.75;;;;;12.19;61.84;101292.41;2078145;28;45520;-69
2022/11/05 00:39:54;;;;;;;;;15.00;15.00;;;;;12.19;61.66;101289.75;2080789;28;46586;-70
2022/11/05 00:40:54;;;;;;;;;14.00;14.00;;;;;12.18;61.80;101293.31;2086382;28;45799;-69
2022/11/05 00:46:08;;;;;;;;;12.40;11.80;;;;;12.16;61.83;101304.91;2067011;28;46681;-70
2022/11/05 00:49:47;;;;;;;;;13.60;13.40;;;;;12.14;62.06;101317.34;2069885;28;46463;-69
2022/11/05 00:50:47;;;;;;;;;12.25;12.25;;;;;12.14;61.99;101320.00;2071290;28;45750;-69
2022/11/05 00:52:54;;;;;;;;;12.33;10.33;;;;;12.14;61.97;101314.69;2070648;28;46645;-69
2022/11/05 00:53:07;;;;;;;;;11.40;11.40;;;;;12.15;62.06;101313.78;2074501;28;46286;-71
2022/11/05 00:54:08;;;;;;;;;13.00;13.00;;;;;12.15;61.89;101314.66;2065285;28;46815;-70
2022/11/05 00:55:08;;;;;;;;;9.00;9.00;;;;;12.16;62.02;101310.22;2074246;28;45703;-72
2022/11/05 00:56:09;;;;;;;;;12.00;11.00;;;;;12.15;61.91;101313.78;2097499;28;46504;-69
2022/11/05 00:57:09;;;;;;;;;12.25;12.25;;;;;12.16;61.91;101308.44;2095807;28;45611;-72
2022/11/05 00:58:12;;;;;;;;;12.50;12.25;;;;;12.18;62.25;101309.28;2095764;28;46235;-71
2022/11/05 00:59:12;;;;;;;;;10.80;9.40;;;;;12.19;61.95;101312.81;2095309;28;46430;-69
2022/11/05 01:00:13;;;;;;;;;10.00;9.00;;;;;12.20;61.84;101312.81;2094448;28;47498;-70
2022/11/05 01:01:13;;;;;;;;;13.75;11.75;;;;;12.20;62.00;101315.47;2095710;28;45846;-71
2022/11/05 01:02:13;;;;;;;;;14.00;13.00;;;;;12.23;61.98;101320.72;2087977;28;45588;-70
2022/11/05 01:03:16;;;;;;;;;10.00;10.00;;;;;12.25;61.65;101323.34;2087429;28;45514;-69
2022/11/05 01:04:16;;;;;;;;;11.00;11.00;;;;;12.25;61.73;101318.91;2096282;28;45939;-70
2022/11/05 01:05:17;;;;;;;;;13.25;11.00;;;;;12.25;61.56;101318.91;2095454;28;45455;-69
2022/11/05 01:06:17;;;;;;;;;11.33;11.33;;;;;12.24;61.58;101314.50;2095229;28;46871;-70
2022/11/05 01:07:17;;;;;;;;;1.00;0.00;;;;;12.25;61.51;101315.38;2094313;28;46982;-70
2022/11/05 01:08:19;;;;;;;;;9.67;9.67;;;;;12.24;61.51;101305.63;2096048;28;45722;-70
2022/11/05 01:09:20;;;;;;;;;10.75;10.75;;;;;12.23;61.61;101311.88;2085942;28;46447;-70
2022/11/05 01:10:20;;;;;;;;;13.50;12.00;;;;;12.22;61.52;101305.66;2079364;28;46439;-69
2022/11/05 01:11:32;;;;;;;;;10.00;10.00;;;;;12.22;61.50;101302.13;2087137;28;46510;-69
2022/11/05 01:12:33;;;;;;;;;10.25;9.75;;;;;12.21;61.54;101306.56;2096257;28;46557;-69
2022/11/05 01:13:33;;;;;;;;;12.33;12.00;;;;;12.19;61.56;101308.38;2094931;28;46328;-70
2022/11/05 01:14:34;;;;;;;;;16.00;13.25;;;;;12.19;61.62;101308.38;2093053;28;46193;-69
2022/11/05 01:15:38;;;;;;;;;9.67;9.67;;;;;12.18;61.49;101303.94;2095608;28;45620;-70
2022/11/05 01:16:39;;;;;;;;;9.75;9.00;;;;;12.19;61.60;101312.81;2095904;28;45874;-70
2022/11/05 01:17:39;;;;;;;;;11.50;10.50;;;;;12.18;61.42;101306.59;2093842;28;48659;-70
2022/11/05 01:18:40;;;;;;;;;12.25;11.00;;;;;12.17;61.42;101310.19;2096426;28;46204;-70
2022/11/05 01:19:40;;;;;;;;;11.33;10.67;;;;;12.18;61.54;101316.38;2094091;28;46056;-71
2022/11/05 01:20:40;;;;;;;;;7.00;6.00;;;;;12.17;61.52;101310.19;2105061;27;46462;-69
2022/11/05 01:21:41;;;;;;;;;7.67;7.67;;;;;12.17;61.59;101312.84;2117985;27;45623;-70
2022/11/05 01:22:41;;;;;;;;;10.75;10.75;;;;;12.17;61.40;101310.19;2118858;27;46342;-70
2022/11/05 01:23:41;;;;;;;;;10.00;10.00;;;;;12.17;61.42;101307.53;2115085;27;45713;-68
2022/11/05 01:24:42;;;;;;;;;10.00;9.67;;;;;12.17;61.53;101307.53;2120106;27;45179;-69
2022/11/05 01:25:42;;;;;;;;;9.33;8.33;;;;;12.17;61.25;101304.84;2120875;27;45124;-70
2022/11/05 01:26:42;;;;;;;;;10.33;8.33;;;;;12.20;61.65;101310.16;2122526;27;45893;-70
2022/11/05 01:27:43;;;;;;;;;10.00;8.00;;;;;12.20;61.60;101310.16;2121931;27;46168;-69
2022/11/05 01:28:43;;;;;;;;;10.00;9.00;;;;;12.19;61.58;101303.03;2122065;27;46046;-70
2022/11/05 01:29:43;;;;;;;;;5.50;5.50;;;;;12.21;61.52;101303.03;2119012;27;46551;-69
2022/11/05 01:30:44;;;;;;;;;11.25;9.75;;;;;12.21;61.43;101306.56;2121919;27;45561;-70
2022/11/05 01:31:44;;;;;;;;;11.67;9.33;;;;;12.22;61.53;101296.81;2107196;27;45633;-69
2022/11/05 01:32:44;;;;;;;;;9.00;9.00;;;;;12.21;61.28;101295.06;2108880;27;45948;-69
2022/11/05 01:33:45;;;;;;;;;9.67;9.67;;;;;12.22;61.46;101296.81;2118298;27;45575;-70
2022/11/05 01:34:45;;;;;;;;;12.00;9.00;;;;;12.22;61.44;101304.78;2122036;27;45672;-71
2022/11/05 01:35:46;;;;;;;;;8.75;8.75;;;;;12.22;61.45;101308.34;2115961;27;46499;-69
2022/11/05 01:36:46;;;;;;;;;10.00;10.00;;;;;12.23;61.45;101309.22;2114498;27;46700;-69
2022/11/05 01:37:46;;;;;;;;;9.67;9.00;;;;;12.25;61.26;101302.06;2109664;27;45497;-71
2022/11/05 01:38:47;;;;;;;;;8.00;5.75;;;;;12.23;61.26;101304.75;2106117;27;46654;-70
2022/11/05 01:39:47;;;;;;;;;9.50;9.50;;;;;12.24;61.44;101301.19;2114682;27;45198;-70
2022/11/05 01:40:47;;;;;;;;;13.00;10.00;;;;;12.25;61.44;101302.06;2115225;27;45050;-69
2022/11/05 01:41:48;;;;;;;;;8.00;8.00;;;;;12.25;61.38;101302.94;2118653;27;46254;-70
2022/11/05 01:42:48;;;;;;;;;7.25;6.00;;;;;12.26;61.39;101306.47;2117919;27;44947;-71
2022/11/05 01:43:56;;;;;;;;;8.33;8.33;;;;;12.26;61.31;101304.69;2114984;27;45893;-70
2022/11/05 01:45:19;;;;;;;;;8.25;7.25;;;;;12.26;61.39;101312.69;2114251;27;45885;-70
2022/11/05 01:46:28;;;;;;;;;9.25;9.00;;;;;12.27;61.48;101313.56;2089155;28;46013;-71
2022/11/05 01:47:41;;;;;;;;;9.00;9.00;;;;;12.26;61.41;101307.34;2088067;28;45980;-69
2022/11/05 01:48:42;;;;;;;;;9.60;8.20;;;;;12.26;61.19;101309.13;2095869;28;45874;-69
2022/11/05 01:49:42;;;;;;;;;9.25;9.25;;;;;12.26;61.18;101315.34;2077857;28;45705;-70
2022/11/05 01:51:01;;;;;;;;;12.00;10.50;;;;;12.24;61.37;101314.50;2078936;28;46692;-69
2022/11/05 01:52:03;;;;;;;;;8.50;8.50;;;;;12.23;61.32;101310.09;2085954;28;46604;-68
2022/11/05 01:53:46;;;;;;;;;10.80;10.80;;;;;12.24;61.39;101313.63;2088042;28;45652;-72
2022/11/05 01:54:46;;;;;;;;;13.75;12.75;;;;;12.23;61.09;101311.88;2094882;28;45890;-71
2022/11/05 01:55:53;;;;;;;;;12.25;12.25;;;;;12.23;61.34;101309.22;2095237;28;45987;-70
2022/11/05 01:57:01;;;;;;;;;10.20;10.20;;;;;12.23;61.62;101309.22;2095976;28;46438;-69
2022/11/05 01:58:08;;;;;;;;;10.80;10.40;;;;;12.22;61.47;101312.78;2095341;28;46314;-70
2022/11/05 01:59:20;;;;;;;;;12.50;11.50;;;;;12.21;61.42;101317.22;2095864;28;45381;-71
2022/11/05 02:00:21;;;;;;;;;9.00;9.00;;;;;12.21;61.27;101321.66;2095718;28;46107;-69
2022/11/05 02:01:22;;;;;;;;;10.00;9.00;;;;;12.19;61.47;101315.47;2086698;28;47785;-68
2022/11/05 02:02:24;;;;;;;;;14.00;11.25;;;;;12.20;61.61;101325.25;2087541;28;46038;-69
2022/11/05 02:03:25;;;;;;;;;12.80;10.80;;;;;12.19;61.60;101312.81;2095330;28;46205;-70
2022/11/05 02:04:43;;;;;;;;;12.75;10.50;;;;;12.18;61.59;101311.94;2096132;28;45730;-70
2022/11/05 02:05:45;;;;;;;;;11.25;10.25;;;;;12.18;61.50;101317.25;2094780;28;46605;-70
2022/11/05 02:06:45;;;;;;;;;13.80;13.80;;;;;12.17;61.43;101314.63;2095951;28;46799;-69
2022/11/05 02:07:47;;;;;;;;;10.00;10.00;;;;;12.15;61.54;101317.31;2095014;28;45562;-69
2022/11/05 02:08:59;;;;;;;;;13.00;11.00;;;;;12.14;61.67;101307.59;2087849;28;46393;-71
2022/11/05 02:10:05;;;;;;;;;12.75;10.75;;;;;12.13;61.59;101305.84;2087746;28;46039;-70
2022/11/05 02:11:06;;;;;;;;;12.80;11.00;;;;;12.11;61.68;101305.00;2095954;28;46021;-70
2022/11/05 02:12:08;;;;;;;;;9.00;9.00;;;;;12.12;61.83;101305.88;2094484;28;45167;-70
2022/11/05 02:13:08;;;;;;;;;10.00;8.60;;;;;12.12;61.83;101305.88;2096165;28;45855;-71
2022/11/05 02:14:09;;;;;;;;;10.75;8.25;;;;;12.12;61.75;101303.22;2095330;28;49634;-70
2022/11/05 02:15:14;;;;;;;;;10.00;10.00;;;;;12.11;61.55;101310.31;2095377;28;46126;-71
2022/11/05 02:16:30;;;;;;;;;9.80;9.80;;;;;12.12;61.57;101311.19;2095521;28;46330;-69
2022/11/05 02:18:05;;;;;;;;;10.00;8.80;;;;;12.11;61.84;101314.75;2094945;28;45990;-70
2022/11/05 02:19:21;;;;;;;;;9.00;8.00;;;;;12.10;61.60;101311.22;2095324;28;46623;-69
2022/11/05 02:20:43;;;;;;;;;10.60;9.40;;;;;12.09;61.74;101312.13;2095600;28;45959;-70
2022/11/05 02:21:46;;;;;;;;;10.00;10.00;;;;;12.07;61.60;101306.84;2094829;28;47549;-69
2022/11/05 02:23:11;;;;;;;;;11.00;8.00;;;;;12.07;61.75;101312.16;2095222;28;46974;-70
2022/11/05 02:24:39;;;;;;;;;12.00;10.20;;;;;12.04;61.76;101306.00;2098966;27;47435;-70
2022/11/05 02:25:58;;;;;;;;;10.40;10.40;;;;;12.04;61.76;101309.53;2111020;27;46604;-70
2022/11/05 02:27:20;;;;;;;;;12.40;11.40;;;;;12.03;61.94;101306.91;2113809;27;46197;-73
2022/11/05 02:28:32;;;;;;;;;11.80;11.80;;;;;12.03;61.82;101314.88;2121776;27;45544;-73
2022/11/05 02:30:06;;;;;;;;;9.80;9.40;;;;;12.04;62.01;101308.66;2120187;27;47406;-72
2022/11/05 02:31:20;;;;;;;;;9.80;9.80;;;;;12.03;62.09;101306.91;2114674;27;45291;-72
2022/11/05 02:32:46;;;;;;;;;13.00;11.60;;;;;12.02;62.08;101306.03;2117295;27;46958;-72
2022/11/05 02:33:55;;;;;;;;;11.60;10.20;;;;;12.01;61.88;101304.28;2116181;27;46930;-73
2022/11/05 02:35:11;;;;;;;;;11.20;9.80;;;;;12.02;62.07;101313.13;2117170;27;45734;-72
2022/11/05 02:36:23;;;;;;;;;11.00;10.40;;;;;12.01;62.17;101309.59;2117166;27;46621;-69
2022/11/05 02:37:45;;;;;;;;;12.20;12.20;;;;;12.02;62.11;101319.31;2120535;27;45906;-70
2022/11/05 02:38:59;;;;;;;;;10.00;9.80;;;;;12.01;62.05;101317.56;2120882;27;47895;-72
2022/11/05 02:40:14;;;;;;;;;12.40;12.00;;;;;12.01;62.05;101316.69;2112529;27;46115;-72
2022/11/05 02:41:23;;;;;;;;;11.80;10.60;;;;;12.02;62.01;101326.44;2114472;27;45731;-73
2022/11/05 02:42:48;;;;;;;;;10.40;9.00;;;;;12.02;62.04;101319.31;2117933;27;46132;-72
2022/11/05 02:44:19;;;;;;;;;11.20;11.00;;;;;12.03;62.10;101315.75;2114513;27;45697;-71
2022/11/05 02:45:47;;;;;;;;;11.60;11.60;;;;;12.03;61.98;101312.22;2096742;27;46240;-72
2022/11/05 02:47:20;;;;;;;;;14.80;12.40;;;;;12.02;61.90;101314.00;2104414;28;46462;-72
2022/11/05 02:48:29;;;;;;;;;9.00;9.00;;;;;12.01;62.11;101314.03;2105896;27;46937;-74
2022/11/05 02:50:02;;;;;;;;;13.80;10.60;;;;;12.03;62.00;101314.88;2105168;27;46415;-74
2022/11/05 02:51:26;;;;;;;;;11.00;10.80;;;;;12.01;61.84;101311.38;2095691;28;46876;-73
2022/11/05 02:52:45;;;;;;;;;13.00;12.00;;;;;12.01;61.87;101311.38;2100322;28;45898;-73
2022/11/05 02:54:03;;;;;;;;;9.00;8.00;;;;;12.01;62.03;101306.06;2097936;27;46012;-73
2022/11/05 02:55:32;;;;;;;;;4.20;4.20;;;;;12.01;62.11;101311.38;2094541;28;47162;-73
2022/11/05 02:56:36;;;;;;;;;12.00;11.00;;;;;12.01;61.99;101314.03;2097374;28;45753;-72
2022/11/05 02:57:43;;;;;;;;;14.40;11.00;;;;;12.01;62.30;101312.25;2102036;27;46845;-72
2022/11/05 02:58:43;;;;;;;;;8.80;8.20;;;;;12.01;61.98;101317.56;2104735;28;45806;-74
2022/11/05 02:59:44;;;;;;;;;9.50;8.75;;;;;12.01;61.96;101314.03;2094007;28;45091;-69
2022/11/05 03:00:51;;;;;;;;;11.33;10.67;;;;;12.00;61.90;101315.81;2095769;28;46910;-70
2022/11/05 03:01:52;;;;;;;;;9.20;9.20;;;;;12.00;61.88;101310.50;2100878;27;45806;-71
2022/11/05 03:02:53;;;;;;;;;10.00;8.25;;;;;11.98;61.81;101314.97;2104553;27;46718;-72
2022/11/05 03:03:59;;;;;;;;;12.50;12.50;;;;;11.96;61.67;101314.13;2098700;27;45494;-69
2022/11/05 03:05:01;;;;;;;;;9.00;9.00;;;;;11.95;62.03;101309.72;2104674;28;46069;-70
2022/11/05 03:06:11;;;;;;;;;7.40;7.40;;;;;11.95;62.34;101306.19;2092552;28;45668;-68
2022/11/05 03:07:23;;;;;;;;;11.00;10.00;;;;;11.94;61.98;101305.31;2096107;27;46510;-70
2022/11/05 03:08:39;;;;;;;;;10.00;8.00;;;;;11.92;61.97;101314.19;2099964;28;46731;-70
2022/11/05 03:09:42;;;;;;;;;8.00;8.00;;;;;11.90;62.03;101308.03;2099856;27;46265;-70
2022/11/05 03:10:54;;;;;;;;;7.40;7.40;;;;;11.88;62.33;101313.38;2092570;28;45628;-69
2022/11/05 03:12:20;;;;;;;;;8.75;8.75;;;;;11.88;62.38;101310.72;2092565;28;46425;-70
2022/11/05 03:13:39;;;;;;;;;10.20;10.00;;;;;11.88;62.57;101310.72;2102997;27;46789;-69
2022/11/05 03:14:48;;;;;;;;;9.60;8.00;;;;;11.89;62.50;101306.28;2101405;28;46186;-69
2022/11/05 03:15:55;;;;;;;;;8.00;8.00;;;;;11.89;62.43;101309.81;2103201;27;45517;-70
2022/11/05 03:17:20;;;;;;;;;8.00;8.00;;;;;11.90;62.41;101306.25;2108704;28;46807;-71
2022/11/05 03:18:32;;;;;;;;;8.50;6.25;;;;;11.90;62.29;101305.38;2108042;28;46480;-70
2022/11/05 03:19:45;;;;;;;;;8.60;7.00;;;;;11.90;62.30;101308.91;2102254;27;46241;-70
2022/11/05 03:21:08;;;;;;;;;11.00;7.00;;;;;11.91;62.46;101297.34;2096030;28;46379;-70
2022/11/05 03:22:15;;;;;;;;;8.75;8.75;;;;;11.91;62.29;101302.69;2103132;27;46613;-70
2022/11/05 03:23:20;;;;;;;;;8.00;8.00;;;;;11.93;62.42;101300.00;2103446;27;47021;-70
2022/11/05 03:24:31;;;;;;;;;11.00;9.20;;;;;11.94;62.36;101302.66;2099647;28;48148;-70
2022/11/05 03:25:38;;;;;;;;;6.60;6.40;;;;;11.96;62.66;101294.63;2103411;27;46067;-71
2022/11/05 03:26:56;;;;;;;;;7.75;7.00;;;;;11.96;62.38;101298.16;2120452;27;46254;-70
2022/11/05 03:28:04;;;;;;;;;9.00;9.00;;;;;11.98;62.52;101299.03;2120520;27;47084;-71
2022/11/05 03:29:10;;;;;;;;;8.40;8.40;;;;;11.97;62.35;101297.25;2111684;27;45840;-69
2022/11/05 03:30:13;;;;;;;;;7.80;7.40;;;;;11.97;62.42;101297.25;2109461;27;46621;-70
2022/11/05 03:31:16;;;;;;;;;6.75;6.75;;;;;11.99;62.36;101305.22;2119851;27;46977;-70
2022/11/05 03:32:19;;;;;;;;;9.20;9.20;;;;;11.98;62.34;101292.81;2113456;27;46149;-67
2022/11/05 03:33:26;;;;;;;;;9.60;8.40;;;;;12.00;62.33;101299.00;2114039;27;47100;-69
2022/11/05 03:34:35;;;;;;;;;10.40;7.60;;;;;11.99;62.28;101305.22;2118672;27;46215;-69
2022/11/05 03:35:45;;;;;;;;;10.00;8.00;;;;;12.01;62.34;101298.06;2120566;27;47228;-68
2022/11/05 03:36:51;;;;;;;;;7.80;7.20;;;;;12.01;62.57;101303.41;2121436;27;46038;-69
2022/11/05 03:38:00;;;;;;;;;10.40;9.00;;;;;12.02;62.46;101305.16;2117796;27;45650;-70
2022/11/05 03:39:05;;;;;;;;;9.80;8.80;;;;;12.02;62.61;101299.81;2113558;27;45802;-71
2022/11/05 03:40:09;;;;;;;;;3.80;3.80;;;;;12.02;62.61;101299.81;2116670;27;46597;-69
2022/11/05 03:41:14;;;;;;;;;8.25;8.25;;;;;12.02;62.61;101302.50;2117236;27;46472;-70
2022/11/05 03:42:18;;;;;;;;;9.75;9.75;;;;;12.01;62.66;101292.75;2121547;27;46431;-70
2022/11/05 03:43:23;;;;;;;;;8.50;8.50;;;;;12.02;62.67;101305.16;2113806;27;46779;-70
2022/11/05 03:44:31;;;;;;;;;8.20;8.20;;;;;12.02;62.45;101294.50;2121523;27;46645;-70
2022/11/05 03:45:37;;;;;;;;;8.80;8.80;;;;;12.02;62.58;101299.81;2120565;27;45337;-70
2022/11/05 03:46:43;;;;;;;;;5.00;5.00;;;;;12.03;62.28;101288.28;2121435;27;46183;-70
2022/11/05 03:47:46;;;;;;;;;9.60;7.40;;;;;12.04;62.78;101295.34;2116915;27;46868;-69
2022/11/05 03:48:51;;;;;;;;;9.00;8.80;;;;;12.03;62.62;101294.47;2112368;27;45580;-70
2022/11/05 03:50:08;;;;;;;;;9.00;9.00;;;;;12.04;62.36;101285.59;2109086;27;46274;-71
2022/11/05 03:51:32;;;;;;;;;9.00;7.00;;;;;12.06;62.54;101286.44;2112968;27;45782;-70
2022/11/05 03:52:42;;;;;;;;;7.25;7.25;;;;;12.07;62.53;101280.25;2118648;27;46818;-70
2022/11/05 03:53:52;;;;;;;;;12.20;8.80;;;;;12.08;62.40;101289.09;2116861;27;45381;-71
2022/11/05 03:54:53;;;;;;;;;9.00;7.80;;;;;12.09;62.64;101288.19;2122124;27;46467;-72
2022/11/05 03:56:01;;;;;;;;;7.75;7.75;;;;;12.10;62.38;101286.41;2117850;27;46288;-73
2022/11/05 03:57:20;;;;;;;;;8.40;7.00;;;;;12.11;62.36;101285.50;2112619;27;46086;-73
2022/11/05 03:58:21;;;;;;;;;10.40;8.60;;;;;12.11;62.34;101291.69;2117038;27;46145;-72
2022/11/05 03:59:23;;;;;;;;;9.40;9.00;;;;;12.12;62.46;101288.13;2114937;27;45725;-72
2022/11/05 04:00:23;;;;;;;;;10.25;9.50;;;;;12.12;62.60;101290.78;2117370;27;45233;-72
2022/11/05 04:01:24;;;;;;;;;11.50;10.25;;;;;12.14;62.50;101299.59;2117990;27;45756;-73
2022/11/05 04:02:25;;;;;;;;;8.00;8.00;;;;;12.14;62.31;101296.94;2113587;27;45434;-72
2022/11/05 04:03:26;;;;;;;;;7.00;7.00;;;;;12.16;62.63;101296.91;2105382;27;45100;-73
2022/11/05 04:04:26;;;;;;;;;7.00;7.00;;;;;12.17;62.27;101296.88;2117061;27;46356;-73
2022/11/05 04:05:27;;;;;;;;;7.00;7.00;;;;;12.17;62.31;101286.22;2120967;27;45419;-73
2022/11/05 04:14:19;;;;;;;;;6.60;6.00;;;;;12.19;62.44;101299.50;2118494;27;46895;-73
2022/11/05 04:15:20;;;;;;;;;7.50;7.50;;;;;12.18;62.46;101297.75;2120511;27;46050;-73
2022/11/05 04:17:39;;;;;;;;;7.80;6.40;;;;;12.14;62.34;101296.94;2118630;27;46394;-68
2022/11/05 04:18:40;;;;;;;;;8.67;7.33;;;;;12.13;62.35;101296.97;2121099;27;45583;-69
2022/11/05 04:24:07;;;;;;;;;10.00;7.50;;;;;12.11;62.33;101299.66;2099584;27;46493;-69
2022/11/05 04:25:08;;;;;;;;;7.50;6.25;;;;;12.11;62.52;101305.00;2095554;28;46456;-70
2022/11/05 04:26:08;;;;;;;;;6.25;6.25;;;;;12.11;62.61;101309.44;2097360;27;45718;-69
2022/11/05 04:27:10;;;;;;;;;6.75;6.75;;;;;12.11;62.51;101309.44;2103026;28;46481;-70
2022/11/05 04:28:10;;;;;;;;;5.80;5.80;;;;;12.11;62.63;101312.09;2099266;28;46207;-70
2022/11/05 04:30:30;;;;;;;;;9.60;7.00;;;;;12.11;62.71;101312.09;2103515;28;45786;-69
2022/11/05 04:31:30;;;;;;;;;7.75;7.75;;;;;12.11;62.86;101306.78;2101498;28;46226;-70
2022/11/05 04:32:30;;;;;;;;;6.25;5.50;;;;;12.12;62.62;101305.88;2103245;28;47153;-70
2022/11/05 04:33:31;;;;;;;;;8.75;6.75;;;;;12.13;62.79;101305.84;2102963;27;46310;-69
2022/11/05 04:34:31;;;;;;;;;8.00;8.00;;;;;12.13;62.77;101305.84;2103933;28;45859;-69
2022/11/05 04:35:36;;;;;;;;;10.00;7.25;;;;;12.14;62.64;101309.38;2107752;27;46975;-70
2022/11/05 04:36:36;;;;;;;;;8.00;8.00;;;;;12.14;62.78;101314.69;2103971;27;46509;-70
2022/11/05 04:37:37;;;;;;;;;6.00;6.00;;;;;12.15;62.58;101311.13;2101103;27;45632;-70
2022/11/05 04:38:37;;;;;;;;;8.00;6.00;;;;;12.15;62.56;101316.44;2104077;28;46038;-69
2022/11/05 04:39:37;;;;;;;;;8.00;7.25;;;;;12.14;62.48;101326.22;2098208;27;47679;-68
2022/11/05 04:40:37;;;;;;;;;5.00;5.00;;;;;12.12;62.47;101327.16;2101340;28;45762;-70
2022/11/05 04:41:38;;;;;;;;;7.33;4.00;;;;;12.10;62.66;101323.66;2098873;27;45464;-70
2022/11/05 04:42:38;;;;;;;;;5.33;4.67;;;;;12.07;62.42;101325.47;2100344;28;46598;-69
2022/11/05 04:43:38;;;;;;;;;6.50;6.50;;;;;12.06;62.63;101330.78;2095847;28;46474;-70
2022/11/05 04:44:39;;;;;;;;;7.33;7.33;;;;;12.03;62.71;101325.53;2101061;28;47075;-70
2022/11/05 04:45:39;;;;;;;;;7.50;6.50;;;;;12.01;62.71;101322.03;2101032;27;47440;-68
2022/11/05 04:46:40;;;;;;;;;8.00;8.00;;;;;11.98;62.74;101314.97;2103459;28;44955;-68
2022/11/05 04:47:40;;;;;;;;;7.00;6.00;;;;;11.99;62.83;101321.16;2102573;28;45460;-70
2022/11/05 04:48:41;;;;;;;;;6.00;6.00;;;;;11.99;62.72;101321.16;2103232;28;46654;-70
2022/11/05 04:49:41;;;;;;;;;4.67;4.67;;;;;11.98;62.70;101314.09;2099440;27;48809;-70
2022/11/05 04:50:41;;;;;;;;;8.00;7.00;;;;;11.97;62.92;101318.53;2102384;28;49006;-70
2022/11/05 04:51:42;;;;;;;;;5.00;5.00;;;;;11.97;62.94;101321.22;2102487;27;46213;-70
2022/11/05 04:52:42;;;;;;;;;9.00;6.00;;;;;11.98;62.86;101319.41;2103073;28;46566;-70
2022/11/05 04:53:43;;;;;;;;;5.67;5.67;;;;;11.99;62.88;101310.53;2097679;27;46614;-70
2022/11/05 04:54:43;;;;;;;;;6.00;6.00;;;;;11.98;63.10;101314.97;2102698;28;46771;-70
2022/11/05 04:55:43;;;;;;;;;5.50;5.50;;;;;12.01;63.11;101316.69;2099637;27;46553;-69
2022/11/05 04:56:43;;;;;;;;;6.00;6.00;;;;;12.02;63.06;101326.44;2102368;28;46764;-70
2022/11/05 04:57:53;;;;;;;;;7.00;5.33;;;;;12.03;63.15;101318.41;2100323;27;46768;-68
2022/11/05 04:58:54;;;;;;;;;5.20;5.00;;;;;12.04;62.95;101321.94;2107932;27;46741;-71
2022/11/05 04:59:54;;;;;;;;;3.00;3.00;;;;;12.05;63.05;101321.03;2117325;27;45661;-70
2022/11/05 05:00:54;;;;;;;;;4.33;4.33;;;;;12.05;63.09;101319.25;2113701;27;46256;-69
2022/11/05 05:01:55;;;;;;;;;8.00;5.33;;;;;12.06;63.19;101320.13;2119788;27;46412;-70
2022/11/05 05:02:55;;;;;;;;;8.33;7.00;;;;;12.05;63.02;101316.59;2117226;27;45205;-69
2022/11/05 05:03:55;;;;;;;;;5.00;4.67;;;;;12.07;63.02;101319.25;2114372;27;45422;-71
2022/11/05 05:04:55;;;;;;;;;5.33;5.33;;;;;12.07;63.10;101320.13;2121902;27;45568;-69
2022/11/05 05:05:59;;;;;;;;;6.00;6.00;;;;;12.10;63.12;101323.66;2117213;27;45861;-69
2022/11/05 05:06:59;;;;;;;;;4.00;4.00;;;;;12.10;62.75;101324.53;2121606;27;48775;-71
2022/11/05 05:08:01;;;;;;;;;7.50;5.75;;;;;12.11;62.98;101325.41;2119375;27;46054;-72
2022/11/05 05:09:01;;;;;;;;;5.00;5.00;;;;;12.11;62.91;101328.06;2113086;27;46623;-72
2022/11/05 05:10:03;;;;;;;;;6.67;5.33;;;;;12.11;62.92;101334.25;2106601;27;45532;-71
2022/11/05 05:11:07;;;;;;;;;4.25;4.25;;;;;12.13;63.04;101331.56;2112296;27;46430;-70
2022/11/05 05:12:08;;;;;;;;;4.25;4.25;;;;;12.14;62.90;101333.31;2113155;27;45670;-72
2022/11/05 05:13:10;;;;;;;;;6.00;6.00;;;;;12.14;62.95;101330.66;2117211;27;46646;-70
2022/11/05 05:14:11;;;;;;;;;4.75;3.50;;;;;12.14;62.72;101338.63;2117921;27;45668;-71
2022/11/05 05:15:11;;;;;;;;;7.33;5.67;;;;;12.12;62.63;101328.03;2112047;27;45603;-73
2022/11/05 05:16:23;;;;;;;;;4.00;4.00;;;;;12.11;62.75;101339.56;2111292;27;45081;-70
2022/11/05 05:17:24;;;;;;;;;4.50;4.50;;;;;12.10;62.71;101345.81;2115594;27;46498;-70
2022/11/05 05:18:25;;;;;;;;;5.00;4.67;;;;;12.07;62.86;101330.78;2120749;27;46584;-69
2022/11/05 05:19:26;;;;;;;;;3.75;3.75;;;;;12.08;62.73;101334.31;2119632;27;46656;-71
2022/11/05 05:21:45;;;;;;;;;6.25;4.50;;;;;12.06;62.83;101341.41;2117120;27;45396;-70
2022/11/05 05:22:54;;;;;;;;;4.33;4.33;;;;;12.06;62.84;101336.97;2117499;27;45215;-71
2022/11/05 05:23:54;;;;;;;;;8.00;5.00;;;;;12.04;62.86;101338.78;2117423;27;46735;-71
2022/11/05 05:24:55;;;;;;;;;7.00;6.00;;;;;12.03;62.53;101338.81;2120480;27;46152;-68
2022/11/05 05:25:58;;;;;;;;;5.67;5.00;;;;;12.01;62.95;101337.97;2119375;27;45529;-69
2022/11/05 05:27:00;;;;;;;;;5.75;5.00;;;;;12.00;62.97;101345.09;2121411;27;46563;-69
2022/11/05 05:28:00;;;;;;;;;4.25;3.50;;;;;12.00;63.01;101338.88;2115407;27;47093;-70
2022/11/05 05:29:00;;;;;;;;;6.00;4.67;;;;;11.99;62.72;101342.47;2118989;27;46614;-72
2022/11/05 05:30:01;;;;;;;;;5.33;5.33;;;;;11.99;62.99;101337.13;2116155;27;45752;-70
2022/11/05 05:31:01;;;;;;;;;4.00;3.67;;;;;11.99;62.90;101337.13;2122843;27;45940;-71
2022/11/05 05:32:01;;;;;;;;;8.00;6.00;;;;;11.99;62.75;101342.47;2118874;27;45628;-69
2022/11/05 05:33:02;;;;;;;;;6.33;6.33;;;;;12.00;63.10;101338.88;2117507;27;45099;-71
2022/11/05 05:34:04;;;;;;;;;3.67;3.67;;;;;11.99;62.90;101339.78;2117993;27;46593;-70
2022/11/05 05:35:05;;;;;;;;;4.00;4.00;;;;;12.00;63.35;101339.75;2116370;27;46031;-69
2022/11/05 05:36:05;;;;;;;;;6.33;5.67;;;;;12.02;62.88;101329.09;2115846;27;46265;-72
2022/11/05 05:37:06;;;;;;;;;6.00;6.00;;;;;12.03;62.86;101341.47;2114727;27;47258;-72
2022/11/05 05:38:06;;;;;;;;;7.00;7.00;;;;;12.04;62.92;101340.56;2124176;27;45031;-71
2022/11/05 05:39:09;;;;;;;;;6.00;4.33;;;;;12.04;62.87;101332.59;2127075;27;45544;-70
2022/11/05 05:40:10;;;;;;;;;5.00;5.00;;;;;12.04;62.93;101341.47;2124283;27;49908;-72
2022/11/05 05:41:10;;;;;;;;;3.00;3.00;;;;;12.04;62.92;101336.13;2099971;27;46132;-70
2022/11/05 05:42:11;;;;;;;;;4.67;4.67;;;;;12.04;63.07;101340.56;2103471;28;46819;-70
2022/11/05 05:43:12;;;;;;;;;5.25;5.25;;;;;12.04;63.01;101338.78;2114533;27;46232;-68